La Gavraise 2 — FU6293 — position and weather

sailwx.info

Track history (hours):
 
Tides and Currents Weather Stations Pressure Air Temp Water Temp Dewpoint Dewpoint Depression Visibility Wind Speed Wind Dir Waves Ship Positions

La Gavraise 2

Last reported at 2017-Nov-18 15:23 UTC. Time now 2017-Nov-23 17:10 UTC.
Position N 47°44' W 003°22'.

Length 12 m.

Type: Fishing. MMSI: 227315950.

Date/timePositionNaut miles runAvg speedWind from/ knotsBaromVisibWave heightAir tempDewpointWater temp
2017-Nov-18 15:23N 47°44' W 003°22'0 0.3
2017-Nov-18 15:00N 47°44' W 003°22'4 8.5
2017-Nov-18 14:30N 47°40' W 003°22'5 9.3
2017-Nov-18 14:00N 47°35' W 003°22'5 9.4
2017-Nov-18 13:30N 47°30' W 003°21'10 2.1
2017-Nov-18 08:33N 47°20' W 003°23'0 1.1
2017-Nov-18 08:30N 47°20' W 003°23'1 1.6
2017-Nov-18 07:45N 47°19' W 003°24'5 1.4
2017-Nov-18 04:03N 47°24' W 003°21'0 8.5
2017-Nov-18 04:00N 47°24' W 003°21'4 8.9
2017-Nov-18 03:30N 47°29' W 003°22'4 9.0
2017-Nov-18 03:00N 47°33' W 003°22'5 9.2
2017-Nov-18 02:30N 47°38' W 003°22'4 8.9
2017-Nov-18 02:00N 47°42' W 003°22'1 0.1
2017-Nov-17 16:05N 47°44' W 003°22'0 1.0
2017-Nov-17 15:59N 47°44' W 003°22'1 1.9
2017-Nov-17 15:30N 47°43' W 003°22'4 8.6
2017-Nov-17 15:00N 47°39' W 003°23'4 8.3
2017-Nov-17 14:30N 47°35' W 003°25'4 8.7
2017-Nov-17 14:00N 47°31' W 003°28'4 9.0
2017-Nov-17 13:30N 47°27' W 003°30'3 0.4
2017-Nov-17 04:15N 47°23' W 003°32'2 9.2
2017-Nov-17 04:00N 47°25' W 003°31'4 8.9
2017-Nov-17 03:30N 47°30' W 003°29'4 8.7
2017-Nov-17 03:00N 47°34' W 003°26'4 8.9
2017-Nov-17 02:30N 47°38' W 003°24'4 8.8
2017-Nov-17 02:00N 47°42' W 003°22'2 0.2
2017-Nov-16 16:36N 47°44' W 003°22'0 0.0
2017-Nov-16 16:30N 47°44' W 003°22'0 0.0
2017-Nov-16 15:45N 47°44' W 003°22'0 1.0
2017-Nov-16 15:30N 47°44' W 003°22'4 8.3
2017-Nov-16 15:00N 47°40' W 003°23'4 8.3
2017-Nov-16 14:30N 47°36' W 003°25'4 8.9
2017-Nov-16 14:00N 47°32' W 003°28'5 8.9
2017-Nov-16 13:28N 47°27' W 003°31'7 0.7
2017-Nov-16 04:26N 47°22' W 003°36'4 8.8
2017-Nov-16 04:00N 47°25' W 003°33'4 8.9
2017-Nov-16 03:30N 47°29' W 003°30'4 8.7
2017-Nov-16 03:00N 47°33' W 003°28'4 8.6
2017-Nov-16 02:30N 47°37' W 003°24'4 8.7
2017-Nov-16 02:00N 47°41' W 003°22'3 0.3
2017-Nov-15 16:49N 47°44' W 003°22'0 0.3
2017-Nov-15 16:30N 47°44' W 003°22'4 7.4
2017-Nov-15 16:00N 47°40' W 003°23'4 8.6
2017-Nov-15 15:30N 47°36' W 003°25'4 8.6
2017-Nov-15 15:00N 47°32' W 003°28'4 8.7
2017-Nov-15 14:30N 47°28' W 003°31'4 8.4
2017-Nov-15 13:58N 47°24' W 003°34'2 0.2
2017-Nov-15 04:09N 47°23' W 003°34'2 9.3
2017-Nov-15 03:58N 47°24' W 003°33'4 9.2
2017-Nov-15 03:30N 47°28' W 003°31'5 9.0
2017-Nov-15 02:59N 47°32' W 003°27'4 9.1
2017-Nov-15 02:30N 47°36' W 003°24'5 9.0
2017-Nov-15 02:00N 47°41' W 003°22'3 0.4
2017-Nov-14 18:12N 47°44' W 003°22'0 0.0
2017-Nov-14 18:00N 47°44' W 003°22'0 0.0
2017-Nov-14 16:35N 47°44' W 003°22'0 0.0
2017-Nov-14 16:29N 47°44' W 003°22'0 0.4
2017-Nov-14 16:00N 47°44' W 003°22'4 7.9
2017-Nov-14 15:30N 47°40' W 003°23'4 8.5
2017-Nov-14 15:00N 47°36' W 003°25'4 8.7
2017-Nov-14 14:30N 47°32' W 003°28'4 8.7
2017-Nov-14 14:00N 47°28' W 003°31'8 0.8
2017-Nov-14 04:25N 47°21' W 003°36'4 9.5
2017-Nov-14 03:59N 47°25' W 003°33'4 9.2
2017-Nov-14 03:30N 47°29' W 003°30'4 9.0
2017-Nov-14 03:00N 47°33' W 003°27'5 9.0
2017-Nov-14 02:30N 47°37' W 003°24'5 9.0
2017-Nov-14 02:00N 47°41' W 003°22'1 0.0
2017-Nov-13 02:00N 47°41' W 003°22'3 0.1
2017-Nov-11 11:00N 47°44' W 003°22'0 0.0
2017-Nov-10 16:07N 47°44' W 003°22'0 0.8
2017-Nov-10 16:00N 47°44' W 003°22'2 5.1
2017-Nov-10 15:30N 47°41' W 003°22'4 8.8
2017-Nov-10 15:00N 47°37' W 003°21'4 8.8
2017-Nov-10 14:30N 47°33' W 003°21'4 8.8
2017-Nov-10 14:00N 47°28' W 003°20'4 8.1
2017-Nov-10 13:30N 47°24' W 003°19'1 0.1
2017-Nov-10 03:50N 47°25' W 003°19'3 8.7
2017-Nov-10 03:30N 47°28' W 003°20'4 8.6
2017-Nov-10 03:00N 47°32' W 003°20'4 8.8
2017-Nov-10 02:30N 47°37' W 003°21'4 8.9
2017-Nov-10 02:00N 47°41' W 003°22'3 0.3
2017-Nov-09 16:14N 47°44' W 003°22'0 0.4
2017-Nov-09 15:59N 47°44' W 003°22'4 7.8
2017-Nov-09 15:30N 47°40' W 003°22'4 8.5
2017-Nov-09 15:00N 47°36' W 003°21'4 8.7
2017-Nov-09 14:30N 47°32' W 003°20'5 8.9
2017-Nov-09 13:59N 47°27' W 003°20'2 0.2
2017-Nov-09 03:56N 47°24' W 003°20'4 8.7
2017-Nov-09 03:30N 47°28' W 003°20'4 8.6
2017-Nov-09 03:00N 47°32' W 003°21'4 8.7
2017-Nov-09 02:30N 47°37' W 003°22'4 8.7
2017-Nov-09 02:00N 47°41' W 003°22'3 0.3
2017-Nov-08 16:33N 47°44' W 003°22'0 0.0
2017-Nov-08 16:30N 47°44' W 003°22'1 2.7
2017-Nov-08 16:00N 47°43' W 003°22'4 9.0
2017-Nov-08 15:30N 47°38' W 003°22'  
Track history (hours):
 
Tides and Currents Weather Stations Pressure Air Temp Water Temp Dewpoint Dewpoint Depression Visibility Wind Speed Wind Dir Waves Ship Positions

La Gavraise 2

Last reported at 2017-Nov-18 15:23 UTC. Time now 2017-Nov-23 17:10 UTC.
Position N 47°44' W 003°22'.

Length 12 m.

Type: Fishing. MMSI: 227315950.

Date/timePositionNaut miles runAvg speedWind from/ knotsBaromVisibWave heightAir tempDewpointWater temp
2017-Nov-18 15:23N 47°44' W 003°22'0 0.3
2017-Nov-18 15:00N 47°44' W 003°22'4 8.5
2017-Nov-18 14:30N 47°40' W 003°22'5 9.3
2017-Nov-18 14:00N 47°35' W 003°22'5 9.4
2017-Nov-18 13:30N 47°30' W 003°21'10 2.1
2017-Nov-18 08:33N 47°20' W 003°23'0 1.1
2017-Nov-18 08:30N 47°20' W 003°23'1 1.6
2017-Nov-18 07:45N 47°19' W 003°24'5 1.4
2017-Nov-18 04:03N 47°24' W 003°21'0 8.5
2017-Nov-18 04:00N 47°24' W 003°21'4 8.9
2017-Nov-18 03:30N 47°29' W 003°22'4 9.0
2017-Nov-18 03:00N 47°33' W 003°22'5 9.2
2017-Nov-18 02:30N 47°38' W 003°22'4 8.9
2017-Nov-18 02:00N 47°42' W 003°22'1 0.1
2017-Nov-17 16:05N 47°44' W 003°22'0 1.0
2017-Nov-17 15:59N 47°44' W 003°22'1 1.9
2017-Nov-17 15:30N 47°43' W 003°22'4 8.6
2017-Nov-17 15:00N 47°39' W 003°23'4 8.3
2017-Nov-17 14:30N 47°35' W 003°25'4 8.7
2017-Nov-17 14:00N 47°31' W 003°28'4 9.0
2017-Nov-17 13:30N 47°27' W 003°30'3 0.4
2017-Nov-17 04:15N 47°23' W 003°32'2 9.2
2017-Nov-17 04:00N 47°25' W 003°31'4 8.9
2017-Nov-17 03:30N 47°30' W 003°29'4 8.7
2017-Nov-17 03:00N 47°34' W 003°26'4 8.9
2017-Nov-17 02:30N 47°38' W 003°24'4 8.8
2017-Nov-17 02:00N 47°42' W 003°22'2 0.2
2017-Nov-16 16:36N 47°44' W 003°22'0 0.0
2017-Nov-16 16:30N 47°44' W 003°22'0 0.0
2017-Nov-16 15:45N 47°44' W 003°22'0 1.0
2017-Nov-16 15:30N 47°44' W 003°22'4 8.3
2017-Nov-16 15:00N 47°40' W 003°23'4 8.3
2017-Nov-16 14:30N 47°36' W 003°25'4 8.9
2017-Nov-16 14:00N 47°32' W 003°28'5 8.9
2017-Nov-16 13:28N 47°27' W 003°31'7 0.7
2017-Nov-16 04:26N 47°22' W 003°36'4 8.8
2017-Nov-16 04:00N 47°25' W 003°33'4 8.9
2017-Nov-16 03:30N 47°29' W 003°30'4 8.7
2017-Nov-16 03:00N 47°33' W 003°28'4 8.6
2017-Nov-16 02:30N 47°37' W 003°24'4 8.7
2017-Nov-16 02:00N 47°41' W 003°22'3 0.3
2017-Nov-15 16:49N 47°44' W 003°22'0 0.3
2017-Nov-15 16:30N 47°44' W 003°22'4 7.4
2017-Nov-15 16:00N 47°40' W 003°23'4 8.6
2017-Nov-15 15:30N 47°36' W 003°25'4 8.6
2017-Nov-15 15:00N 47°32' W 003°28'4 8.7
2017-Nov-15 14:30N 47°28' W 003°31'4 8.4
2017-Nov-15 13:58N 47°24' W 003°34'2 0.2
2017-Nov-15 04:09N 47°23' W 003°34'2 9.3
2017-Nov-15 03:58N 47°24' W 003°33'4 9.2
2017-Nov-15 03:30N 47°28' W 003°31'5 9.0
2017-Nov-15 02:59N 47°32' W 003°27'4 9.1
2017-Nov-15 02:30N 47°36' W 003°24'5 9.0
2017-Nov-15 02:00N 47°41' W 003°22'3 0.4
2017-Nov-14 18:12N 47°44' W 003°22'0 0.0
2017-Nov-14 18:00N 47°44' W 003°22'0 0.0
2017-Nov-14 16:35N 47°44' W 003°22'0 0.0
2017-Nov-14 16:29N 47°44' W 003°22'0 0.4
2017-Nov-14 16:00N 47°44' W 003°22'4 7.9
2017-Nov-14 15:30N 47°40' W 003°23'4 8.5
2017-Nov-14 15:00N 47°36' W 003°25'4 8.7
2017-Nov-14 14:30N 47°32' W 003°28'4 8.7
2017-Nov-14 14:00N 47°28' W 003°31'8 0.8
2017-Nov-14 04:25N 47°21' W 003°36'4 9.5
2017-Nov-14 03:59N 47°25' W 003°33'4 9.2
2017-Nov-14 03:30N 47°29' W 003°30'4 9.0
2017-Nov-14 03:00N 47°33' W 003°27'5 9.0
2017-Nov-14 02:30N 47°37' W 003°24'5 9.0
2017-Nov-14 02:00N 47°41' W 003°22'1 0.0
2017-Nov-13 02:00N 47°41' W 003°22'3 0.1
2017-Nov-11 11:00N 47°44' W 003°22'0 0.0
2017-Nov-10 16:07N 47°44' W 003°22'0 0.8
2017-Nov-10 16:00N 47°44' W 003°22'2 5.1
2017-Nov-10 15:30N 47°41' W 003°22'4 8.8
2017-Nov-10 15:00N 47°37' W 003°21'4 8.8
2017-Nov-10 14:30N 47°33' W 003°21'4 8.8
2017-Nov-10 14:00N 47°28' W 003°20'4 8.1
2017-Nov-10 13:30N 47°24' W 003°19'1 0.1
2017-Nov-10 03:50N 47°25' W 003°19'3 8.7
2017-Nov-10 03:30N 47°28' W 003°20'4 8.6
2017-Nov-10 03:00N 47°32' W 003°20'4 8.8
2017-Nov-10 02:30N 47°37' W 003°21'4 8.9
2017-Nov-10 02:00N 47°41' W 003°22'3 0.3
2017-Nov-09 16:14N 47°44' W 003°22'0 0.4
2017-Nov-09 15:59N 47°44' W 003°22'4 7.8
2017-Nov-09 15:30N 47°40' W 003°22'4 8.5
2017-Nov-09 15:00N 47°36' W 003°21'4 8.7
2017-Nov-09 14:30N 47°32' W 003°20'5 8.9
2017-Nov-09 13:59N 47°27' W 003°20'2 0.2
2017-Nov-09 03:56N 47°24' W 003°20'4 8.7
2017-Nov-09 03:30N 47°28' W 003°20'4 8.6
2017-Nov-09 03:00N 47°32' W 003°21'4 8.7
2017-Nov-09 02:30N 47°37' W 003°22'4 8.7
2017-Nov-09 02:00N 47°41' W 003°22'3 0.3
2017-Nov-08 16:33N 47°44' W 003°22'0 0.0
2017-Nov-08 16:30N 47°44' W 003°22'1 2.7
2017-Nov-08 16:00N 47°43' W 003°22'4 9.0
2017-Nov-08 15:30N 47°38' W 003°22'  

Dump ship's entire track history